sensor_id;sensor_type;location;lat;lon;timestamp;P1;durP1;ratioP1;P2;durP2;ratioP2
38811;SDS011;24553;51.640;-0.752;2022-08-07T00:01:57;2.88;;;1.25;;
38811;SDS011;24553;51.640;-0.752;2022-08-07T00:04:22;2.42;;;1.65;;
38811;SDS011;24553;51.640;-0.752;2022-08-07T00:06:48;4.90;;;1.63;;
38811;SDS011;24553;51.640;-0.752;2022-08-07T00:09:13;3.33;;;1.27;;
38811;SDS011;24553;51.640;-0.752;2022-08-07T00:11:39;1.77;;;1.45;;
38811;SDS011;24553;51.640;-0.752;2022-08-07T00:14:04;2.95;;;1.77;;
38811;SDS011;24553;51.640;-0.752;2022-08-07T00:16:29;2.20;;;1.58;;
38811;SDS011;24553;51.640;-0.752;2022-08-07T00:18:55;4.45;;;1.25;;
38811;SDS011;24553;51.640;-0.752;2022-08-07T00:21:20;2.38;;;1.10;;
38811;SDS011;24553;51.640;-0.752;2022-08-07T00:23:45;3.78;;;1.20;;
38811;SDS011;24553;51.640;-0.752;2022-08-07T00:26:11;4.22;;;1.85;;
38811;SDS011;24553;51.640;-0.752;2022-08-07T00:28:36;2.85;;;1.30;;
38811;SDS011;24553;51.640;-0.752;2022-08-07T00:31:03;4.35;;;1.75;;
38811;SDS011;24553;51.640;-0.752;2022-08-07T00:33:32;1.85;;;1.55;;
38811;SDS011;24553;51.640;-0.752;2022-08-07T00:36:02;2.80;;;1.73;;
38811;SDS011;24553;51.640;-0.752;2022-08-07T00:38:28;2.78;;;2.03;;
38811;SDS011;24553;51.640;-0.752;2022-08-07T00:40:54;2.88;;;0.93;;
38811;SDS011;24553;51.640;-0.752;2022-08-07T00:43:19;2.53;;;1.70;;
38811;SDS011;24553;51.640;-0.752;2022-08-07T00:45:44;1.95;;;1.63;;
38811;SDS011;24553;51.640;-0.752;2022-08-07T00:48:10;3.30;;;1.50;;
38811;SDS011;24553;51.640;-0.752;2022-08-07T00:50:36;2.10;;;1.88;;
38811;SDS011;24553;51.640;-0.752;2022-08-07T00:53:03;3.78;;;2.10;;
38811;SDS011;24553;51.640;-0.752;2022-08-07T00:55:28;1.63;;;1.30;;
38811;SDS011;24553;51.640;-0.752;2022-08-07T00:57:54;2.20;;;1.77;;
38811;SDS011;24553;51.640;-0.752;2022-08-07T01:00:20;4.30;;;1.13;;
38811;SDS011;24553;51.640;-0.752;2022-08-07T01:02:47;2.40;;;1.40;;
38811;SDS011;24553;51.640;-0.752;2022-08-07T01:05:12;3.92;;;1.08;;
38811;SDS011;24553;51.640;-0.752;2022-08-07T01:07:38;4.38;;;1.92;;
38811;SDS011;24553;51.640;-0.752;2022-08-07T01:10:06;5.20;;;1.65;;
38811;SDS011;24553;51.640;-0.752;2022-08-07T01:12:32;3.85;;;1.10;;
38811;SDS011;24553;51.640;-0.752;2022-08-07T01:14:58;8.63;;;2.78;;
38811;SDS011;24553;51.640;-0.752;2022-08-07T01:17:25;2.85;;;1.77;;
38811;SDS011;24553;51.640;-0.752;2022-08-07T01:19:52;1.17;;;1.05;;
38811;SDS011;24553;51.640;-0.752;2022-08-07T01:22:20;2.03;;;1.77;;
38811;SDS011;24553;51.640;-0.752;2022-08-07T01:24:46;3.60;;;1.65;;
38811;SDS011;24553;51.640;-0.752;2022-08-07T01:27:12;3.35;;;1.55;;
38811;SDS011;24553;51.640;-0.752;2022-08-07T01:29:38;1.88;;;1.48;;
38811;SDS011;24553;51.640;-0.752;2022-08-07T01:32:03;2.78;;;1.77;;
38811;SDS011;24553;51.640;-0.752;2022-08-07T01:34:30;5.95;;;1.70;;
38811;SDS011;24553;51.640;-0.752;2022-08-07T01:36:56;2.70;;;1.55;;
38811;SDS011;24553;51.640;-0.752;2022-08-07T01:39:22;1.30;;;1.05;;
38811;SDS011;24553;51.640;-0.752;2022-08-07T01:41:47;1.50;;;1.40;;
38811;SDS011;24553;51.640;-0.752;2022-08-07T01:44:13;3.10;;;1.38;;
38811;SDS011;24553;51.640;-0.752;2022-08-07T01:46:39;1.60;;;0.95;;
38811;SDS011;24553;51.640;-0.752;2022-08-07T01:49:05;1.90;;;1.13;;
38811;SDS011;24553;51.640;-0.752;2022-08-07T01:51:31;0.80;;;0.80;;
38811;SDS011;24553;51.640;-0.752;2022-08-07T01:53:58;2.00;;;1.15;;
38811;SDS011;24553;51.640;-0.752;2022-08-07T01:56:28;1.38;;;0.95;;
38811;SDS011;24553;51.640;-0.752;2022-08-07T01:59:00;8.38;;;1.95;;
38811;SDS011;24553;51.640;-0.752;2022-08-07T02:01:41;3.20;;;1.55;;
38811;SDS011;24553;51.640;-0.752;2022-08-07T02:06:41;3.00;;;1.65;;
38811;SDS011;24553;51.640;-0.752;2022-08-07T02:09:08;3.05;;;1.70;;
38811;SDS011;24553;51.640;-0.752;2022-08-07T02:11:37;2.42;;;1.83;;
38811;SDS011;24553;51.640;-0.752;2022-08-07T02:14:06;2.10;;;1.20;;
38811;SDS011;24553;51.640;-0.752;2022-08-07T02:16:32;1.17;;;1.02;;
38811;SDS011;24553;51.640;-0.752;2022-08-07T02:19:02;2.45;;;1.95;;
38811;SDS011;24553;51.640;-0.752;2022-08-07T02:21:31;1.92;;;1.50;;
38811;SDS011;24553;51.640;-0.752;2022-08-07T02:23:59;3.25;;;1.35;;
38811;SDS011;24553;51.640;-0.752;2022-08-07T02:26:25;3.33;;;1.85;;
38811;SDS011;24553;51.640;-0.752;2022-08-07T02:28:52;3.65;;;1.38;;
38811;SDS011;24553;51.640;-0.752;2022-08-07T02:31:18;1.65;;;1.30;;
38811;SDS011;24553;51.640;-0.752;2022-08-07T02:33:46;1.52;;;1.27;;
38811;SDS011;24553;51.640;-0.752;2022-08-07T02:36:13;2.40;;;1.70;;
38811;SDS011;24553;51.640;-0.752;2022-08-07T02:38:40;1.30;;;1.17;;
38811;SDS011;24553;51.640;-0.752;2022-08-07T02:41:06;5.05;;;2.55;;
38811;SDS011;24553;51.640;-0.752;2022-08-07T02:43:32;4.45;;;2.97;;
38811;SDS011;24553;51.640;-0.752;2022-08-07T02:46:00;5.57;;;1.67;;
38811;SDS011;24553;51.640;-0.752;2022-08-07T02:48:28;0.75;;;0.73;;
38811;SDS011;24553;51.640;-0.752;2022-08-07T02:50:54;1.90;;;0.98;;
38811;SDS011;24553;51.640;-0.752;2022-08-07T02:53:22;1.60;;;1.35;;
38811;SDS011;24553;51.640;-0.752;2022-08-07T02:55:50;4.47;;;1.50;;
38811;SDS011;24553;51.640;-0.752;2022-08-07T02:58:17;6.10;;;1.92;;
38811;SDS011;24553;51.640;-0.752;2022-08-07T03:00:45;2.67;;;1.23;;
38811;SDS011;24553;51.640;-0.752;2022-08-07T03:03:13;1.17;;;1.10;;
38811;SDS011;24553;51.640;-0.752;2022-08-07T03:05:40;1.40;;;1.30;;
38811;SDS011;24553;51.640;-0.752;2022-08-07T03:08:06;2.03;;;1.83;;
38811;SDS011;24553;51.640;-0.752;2022-08-07T03:10:32;2.10;;;1.65;;
38811;SDS011;24553;51.640;-0.752;2022-08-07T03:12:59;3.63;;;1.27;;
38811;SDS011;24553;51.640;-0.752;2022-08-07T03:15:26;2.88;;;1.70;;
38811;SDS011;24553;51.640;-0.752;2022-08-07T03:17:52;1.85;;;0.98;;
38811;SDS011;24553;51.640;-0.752;2022-08-07T03:20:18;2.33;;;2.20;;
38811;SDS011;24553;51.640;-0.752;2022-08-07T03:22:44;0.98;;;0.85;;
38811;SDS011;24553;51.640;-0.752;2022-08-07T03:25:11;2.22;;;1.98;;
38811;SDS011;24553;51.640;-0.752;2022-08-07T03:27:37;1.60;;;1.50;;
38811;SDS011;24553;51.640;-0.752;2022-08-07T03:30:05;1.55;;;1.48;;
38811;SDS011;24553;51.640;-0.752;2022-08-07T03:32:37;1.50;;;1.23;;
38811;SDS011;24553;51.640;-0.752;2022-08-07T03:35:05;2.55;;;1.42;;
38811;SDS011;24553;51.640;-0.752;2022-08-07T03:37:35;1.60;;;1.48;;
38811;SDS011;24553;51.640;-0.752;2022-08-07T03:40:02;5.18;;;1.63;;
38811;SDS011;24553;51.640;-0.752;2022-08-07T03:42:28;3.80;;;1.98;;
38811;SDS011;24553;51.640;-0.752;2022-08-07T03:44:56;2.55;;;1.70;;
38811;SDS011;24553;51.640;-0.752;2022-08-07T03:47:22;2.55;;;2.30;;
38811;SDS011;24553;51.640;-0.752;2022-08-07T03:49:47;2.65;;;1.88;;
38811;SDS011;24553;51.640;-0.752;2022-08-07T03:52:12;3.75;;;1.60;;
38811;SDS011;24553;51.640;-0.752;2022-08-07T03:54:41;1.35;;;1.00;;
38811;SDS011;24553;51.640;-0.752;2022-08-07T03:57:06;1.80;;;1.70;;
38811;SDS011;24553;51.640;-0.752;2022-08-07T03:59:33;2.53;;;1.40;;
38811;SDS011;24553;51.640;-0.752;2022-08-07T04:01:58;1.92;;;1.50;;
38811;SDS011;24553;51.640;-0.752;2022-08-07T04:04:25;2.63;;;1.58;;
38811;SDS011;24553;51.640;-0.752;2022-08-07T04:06:51;2.20;;;1.85;;
38811;SDS011;24553;51.640;-0.752;2022-08-07T04:09:16;1.58;;;1.13;;
38811;SDS011;24553;51.640;-0.752;2022-08-07T04:11:44;8.52;;;1.70;;
38811;SDS011;24553;51.640;-0.752;2022-08-07T04:14:09;2.22;;;1.70;;
38811;SDS011;24553;51.640;-0.752;2022-08-07T04:16:36;2.42;;;1.80;;
38811;SDS011;24553;51.640;-0.752;2022-08-07T04:19:02;2.67;;;1.40;;
38811;SDS011;24553;51.640;-0.752;2022-08-07T04:21:28;3.85;;;1.42;;
38811;SDS011;24553;51.640;-0.752;2022-08-07T04:23:54;2.47;;;1.38;;
38811;SDS011;24553;51.640;-0.752;2022-08-07T04:26:20;1.42;;;1.33;;
38811;SDS011;24553;51.640;-0.752;2022-08-07T04:28:45;2.83;;;1.13;;
38811;SDS011;24553;51.640;-0.752;2022-08-07T04:31:11;2.78;;;1.67;;
38811;SDS011;24553;51.640;-0.752;2022-08-07T04:33:37;1.77;;;1.35;;
38811;SDS011;24553;51.640;-0.752;2022-08-07T04:36:04;1.95;;;1.85;;
38811;SDS011;24553;51.640;-0.752;2022-08-07T04:38:32;4.72;;;1.63;;
38811;SDS011;24553;51.640;-0.752;2022-08-07T04:40:58;2.40;;;1.52;;
38811;SDS011;24553;51.640;-0.752;2022-08-07T04:43:25;2.80;;;1.20;;
38811;SDS011;24553;51.640;-0.752;2022-08-07T04:51:34;2.85;;;1.30;;
38811;SDS011;24553;51.640;-0.752;2022-08-07T04:57:01;3.38;;;1.30;;
38811;SDS011;24553;51.640;-0.752;2022-08-07T04:59:42;3.20;;;0.93;;
38811;SDS011;24553;51.640;-0.752;2022-08-07T05:07:43;3.67;;;1.17;;
38811;SDS011;24553;51.640;-0.752;2022-08-07T05:10:22;1.73;;;1.63;;
38811;SDS011;24553;51.640;-0.752;2022-08-07T05:12:55;3.95;;;1.48;;
38811;SDS011;24553;51.640;-0.752;2022-08-07T05:15:29;5.72;;;1.42;;
38811;SDS011;24553;51.640;-0.752;2022-08-07T05:18:04;4.03;;;1.55;;
38811;SDS011;24553;51.640;-0.752;2022-08-07T05:20:37;2.97;;;1.52;;
38811;SDS011;24553;51.640;-0.752;2022-08-07T05:23:06;4.95;;;1.38;;
38811;SDS011;24553;51.640;-0.752;2022-08-07T05:25:35;4.63;;;2.78;;
38811;SDS011;24553;51.640;-0.752;2022-08-07T05:28:02;3.30;;;2.50;;
38811;SDS011;24553;51.640;-0.752;2022-08-07T05:30:30;2.83;;;1.63;;
38811;SDS011;24553;51.640;-0.752;2022-08-07T05:32:56;1.55;;;1.08;;
38811;SDS011;24553;51.640;-0.752;2022-08-07T05:35:23;1.58;;;1.17;;
38811;SDS011;24553;51.640;-0.752;2022-08-07T05:37:49;2.78;;;1.52;;
38811;SDS011;24553;51.640;-0.752;2022-08-07T05:40:15;2.83;;;1.25;;
38811;SDS011;24553;51.640;-0.752;2022-08-07T05:42:42;3.50;;;1.70;;
38811;SDS011;24553;51.640;-0.752;2022-08-07T05:45:08;1.52;;;1.42;;
38811;SDS011;24553;51.640;-0.752;2022-08-07T05:47:34;3.25;;;1.30;;
38811;SDS011;24553;51.640;-0.752;2022-08-07T05:50:01;2.13;;;1.70;;
38811;SDS011;24553;51.640;-0.752;2022-08-07T05:52:27;1.75;;;1.13;;
38811;SDS011;24553;51.640;-0.752;2022-08-07T05:54:52;2.95;;;0.85;;
38811;SDS011;24553;51.640;-0.752;2022-08-07T05:57:18;2.80;;;1.30;;
38811;SDS011;24553;51.640;-0.752;2022-08-07T05:59:44;1.80;;;1.63;;
38811;SDS011;24553;51.640;-0.752;2022-08-07T06:02:12;0.68;;;0.68;;
38811;SDS011;24553;51.640;-0.752;2022-08-07T06:04:41;3.95;;;1.45;;
38811;SDS011;24553;51.640;-0.752;2022-08-07T06:07:12;1.10;;;1.08;;
38811;SDS011;24553;51.640;-0.752;2022-08-07T06:09:38;1.90;;;1.58;;
38811;SDS011;24553;51.640;-0.752;2022-08-07T06:12:04;2.45;;;1.33;;
38811;SDS011;24553;51.640;-0.752;2022-08-07T06:14:31;1.95;;;1.30;;
38811;SDS011;24553;51.640;-0.752;2022-08-07T06:16:57;2.60;;;1.67;;
38811;SDS011;24553;51.640;-0.752;2022-08-07T06:19:22;1.65;;;1.40;;
38811;SDS011;24553;51.640;-0.752;2022-08-07T06:21:50;2.30;;;1.30;;
38811;SDS011;24553;51.640;-0.752;2022-08-07T06:24:16;2.80;;;1.55;;
38811;SDS011;24553;51.640;-0.752;2022-08-07T06:26:42;2.70;;;1.35;;
38811;SDS011;24553;51.640;-0.752;2022-08-07T06:29:07;1.75;;;1.65;;
38811;SDS011;24553;51.640;-0.752;2022-08-07T06:31:33;3.55;;;1.42;;
38811;SDS011;24553;51.640;-0.752;2022-08-07T06:33:59;2.25;;;1.15;;
38811;SDS011;24553;51.640;-0.752;2022-08-07T06:36:25;3.70;;;1.70;;
38811;SDS011;24553;51.640;-0.752;2022-08-07T06:38:51;1.80;;;0.98;;
38811;SDS011;24553;51.640;-0.752;2022-08-07T06:42:01;3.17;;;1.08;;
38811;SDS011;24553;51.640;-0.752;2022-08-07T06:44:09;3.30;;;1.07;;
38811;SDS011;24553;51.640;-0.752;2022-08-07T06:46:36;2.58;;;0.65;;
38811;SDS011;24553;51.640;-0.752;2022-08-07T06:49:02;1.00;;;0.52;;
38811;SDS011;24553;51.640;-0.752;2022-08-07T06:51:28;2.40;;;0.77;;
38811;SDS011;24553;51.640;-0.752;2022-08-07T06:53:57;4.80;;;1.73;;
38811;SDS011;24553;51.640;-0.752;2022-08-07T06:56:27;4.53;;;0.47;;
38811;SDS011;24553;51.640;-0.752;2022-08-07T06:59:06;0.43;;;0.40;;
38811;SDS011;24553;51.640;-0.752;2022-08-07T07:01:33;1.10;;;0.80;;
38811;SDS011;24553;51.640;-0.752;2022-08-07T07:04:01;2.83;;;1.92;;
38811;SDS011;24553;51.640;-0.752;2022-08-07T07:06:29;2.13;;;1.10;;
38811;SDS011;24553;51.640;-0.752;2022-08-07T07:09:00;2.38;;;0.80;;
38811;SDS011;24553;51.640;-0.752;2022-08-07T07:11:40;2.05;;;0.52;;
38811;SDS011;24553;51.640;-0.752;2022-08-07T07:14:12;2.03;;;0.80;;
38811;SDS011;24553;51.640;-0.752;2022-08-07T07:16:42;0.55;;;0.50;;
38811;SDS011;24553;51.640;-0.752;2022-08-07T07:19:09;0.77;;;0.40;;
38811;SDS011;24553;51.640;-0.752;2022-08-07T07:21:39;3.85;;;0.63;;
38811;SDS011;24553;51.640;-0.752;2022-08-07T07:24:06;2.05;;;1.08;;
38811;SDS011;24553;51.640;-0.752;2022-08-07T07:26:34;0.85;;;0.40;;
38811;SDS011;24553;51.640;-0.752;2022-08-07T07:29:08;1.60;;;0.50;;
38811;SDS011;24553;51.640;-0.752;2022-08-07T07:31:38;0.35;;;0.30;;
38811;SDS011;24553;51.640;-0.752;2022-08-07T07:34:08;1.45;;;0.20;;
38811;SDS011;24553;51.640;-0.752;2022-08-07T07:36:37;3.60;;;0.17;;
38811;SDS011;24553;51.640;-0.752;2022-08-07T07:39:04;2.63;;;0.47;;
38811;SDS011;24553;51.640;-0.752;2022-08-07T07:41:30;3.30;;;0.95;;
38811;SDS011;24553;51.640;-0.752;2022-08-07T07:43:57;0.80;;;0.25;;
38811;SDS011;24553;51.640;-0.752;2022-08-07T07:46:26;0.20;;;0.20;;
38811;SDS011;24553;51.640;-0.752;2022-08-07T07:48:54;0.13;;;0.10;;
38811;SDS011;24553;51.640;-0.752;2022-08-07T07:51:22;1.27;;;0.10;;
38811;SDS011;24553;51.640;-0.752;2022-08-07T07:53:49;0.52;;;0.13;;
38811;SDS011;24553;51.640;-0.752;2022-08-07T07:56:16;0.00;;;0.00;;
38811;SDS011;24553;51.640;-0.752;2022-08-07T07:58:43;3.83;;;0.63;;
38811;SDS011;24553;51.640;-0.752;2022-08-07T08:01:10;0.08;;;0.08;;
38811;SDS011;24553;51.640;-0.752;2022-08-07T08:03:36;2.67;;;0.10;;
38811;SDS011;24553;51.640;-0.752;2022-08-07T08:06:05;0.32;;;0.00;;
38811;SDS011;24553;51.640;-0.752;2022-08-07T08:08:31;0.73;;;0.35;;
38811;SDS011;24553;51.640;-0.752;2022-08-07T08:10:59;3.30;;;0.20;;
38811;SDS011;24553;51.640;-0.752;2022-08-07T08:13:25;1.35;;;0.00;;
38811;SDS011;24553;51.640;-0.752;2022-08-07T08:15:52;2.38;;;0.10;;
38811;SDS011;24553;51.640;-0.752;2022-08-07T08:18:20;0.52;;;0.10;;
38811;SDS011;24553;51.640;-0.752;2022-08-07T08:20:48;0.08;;;0.00;;
38811;SDS011;24553;51.640;-0.752;2022-08-07T08:23:14;0.00;;;0.00;;
38811;SDS011;24553;51.640;-0.752;2022-08-07T08:26:02;1.13;;;0.10;;
38811;SDS011;24553;51.640;-0.752;2022-08-07T08:28:50;0.00;;;0.00;;
38811;SDS011;24553;51.640;-0.752;2022-08-07T08:31:30;3.38;;;0.03;;
38811;SDS011;24553;51.640;-0.752;2022-08-07T08:34:00;0.95;;;0.10;;
38811;SDS011;24553;51.640;-0.752;2022-08-07T08:36:30;0.55;;;0.17;;
38811;SDS011;24553;51.640;-0.752;2022-08-07T08:38:59;0.20;;;0.20;;
38811;SDS011;24553;51.640;-0.752;2022-08-07T08:44:23;0.75;;;0.10;;
38811;SDS011;24553;51.640;-0.752;2022-08-07T08:55:45;2.00;;;0.30;;
38811;SDS011;24553;51.640;-0.752;2022-08-07T09:00:42;1.70;;;0.10;;
38811;SDS011;24553;51.640;-0.752;2022-08-07T09:03:28;0.30;;;0.10;;
38811;SDS011;24553;51.640;-0.752;2022-08-07T09:05:58;0.63;;;0.00;;
38811;SDS011;24553;51.640;-0.752;2022-08-07T09:11:17;0.40;;;0.03;;
38811;SDS011;24553;51.640;-0.752;2022-08-07T09:21:59;3.60;;;0.10;;
38811;SDS011;24553;51.640;-0.752;2022-08-07T09:32:30;0.80;;;0.20;;
38811;SDS011;24553;51.640;-0.752;2022-08-07T09:35:13;0.77;;;0.10;;
38811;SDS011;24553;51.640;-0.752;2022-08-07T09:40:29;0.20;;;0.13;;
38811;SDS011;24553;51.640;-0.752;2022-08-07T09:51:25;1.45;;;0.20;;
38811;SDS011;24553;51.640;-0.752;2022-08-07T09:54:04;1.25;;;0.40;;
38811;SDS011;24553;51.640;-0.752;2022-08-07T10:18:58;1.52;;;0.20;;
38811;SDS011;24553;51.640;-0.752;2022-08-07T10:30:07;1.45;;;0.38;;
38811;SDS011;24553;51.640;-0.752;2022-08-07T10:32:53;0.85;;;0.28;;
38811;SDS011;24553;51.640;-0.752;2022-08-07T10:38:51;4.10;;;0.22;;
38811;SDS011;24553;51.640;-0.752;2022-08-07T10:41:24;0.60;;;0.32;;
38811;SDS011;24553;51.640;-0.752;2022-08-07T10:46:33;1.27;;;0.45;;
38811;SDS011;24553;51.640;-0.752;2022-08-07T10:49:07;0.30;;;0.10;;
38811;SDS011;24553;51.640;-0.752;2022-08-07T10:51:41;1.95;;;0.08;;
38811;SDS011;24553;51.640;-0.752;2022-08-07T10:54:44;0.85;;;0.22;;
38811;SDS011;24553;51.640;-0.752;2022-08-07T10:57:24;1.27;;;0.25;;
38811;SDS011;24553;51.640;-0.752;2022-08-07T11:10:54;0.10;;;0.10;;
38811;SDS011;24553;51.640;-0.752;2022-08-07T11:13:27;0.17;;;0.15;;
38811;SDS011;24553;51.640;-0.752;2022-08-07T11:16:05;2.10;;;0.30;;
38811;SDS011;24553;51.640;-0.752;2022-08-07T11:21:27;0.98;;;0.32;;
38811;SDS011;24553;51.640;-0.752;2022-08-07T11:28:55;1.48;;;0.10;;
38811;SDS011;24553;51.640;-0.752;2022-08-07T11:49:13;0.77;;;0.20;;
38811;SDS011;24553;51.640;-0.752;2022-08-07T12:08:10;1.23;;;0.10;;
38811;SDS011;24553;51.640;-0.752;2022-08-07T12:16:03;0.75;;;0.10;;
38811;SDS011;24553;51.640;-0.752;2022-08-07T12:21:13;0.40;;;0.00;;
38811;SDS011;24553;51.640;-0.752;2022-08-07T12:26:40;0.00;;;0.00;;
38811;SDS011;24553;51.640;-0.752;2022-08-07T12:29:17;3.25;;;0.00;;
38811;SDS011;24553;51.640;-0.752;2022-08-07T12:34:38;1.65;;;0.00;;
38811;SDS011;24553;51.640;-0.752;2022-08-07T12:37:09;3.60;;;0.22;;
38811;SDS011;24553;51.640;-0.752;2022-08-07T12:42:04;1.75;;;0.10;;
38811;SDS011;24553;51.640;-0.752;2022-08-07T12:44:31;7.43;;;0.85;;
38811;SDS011;24553;51.640;-0.752;2022-08-07T12:47:02;0.93;;;0.10;;
38811;SDS011;24553;51.640;-0.752;2022-08-07T12:52:35;0.80;;;0.63;;
38811;SDS011;24553;51.640;-0.752;2022-08-07T12:55:43;0.38;;;0.00;;
38811;SDS011;24553;51.640;-0.752;2022-08-07T12:58:11;1.20;;;0.00;;
38811;SDS011;24553;51.640;-0.752;2022-08-07T13:12:06;1.27;;;0.20;;
38811;SDS011;24553;51.640;-0.752;2022-08-07T13:14:44;0.90;;;0.00;;
38811;SDS011;24553;51.640;-0.752;2022-08-07T13:22:33;0.60;;;0.45;;
38811;SDS011;24553;51.640;-0.752;2022-08-07T13:25:03;0.00;;;0.00;;
38811;SDS011;24553;51.640;-0.752;2022-08-07T13:27:35;0.57;;;0.10;;
38811;SDS011;24553;51.640;-0.752;2022-08-07T13:30:05;1.33;;;0.17;;
38811;SDS011;24553;51.640;-0.752;2022-08-07T13:35:41;5.38;;;0.00;;
38811;SDS011;24553;51.640;-0.752;2022-08-07T13:44:08;1.55;;;0.10;;
38811;SDS011;24553;51.640;-0.752;2022-08-07T13:46:36;1.25;;;0.10;;
38811;SDS011;24553;51.640;-0.752;2022-08-07T13:49:05;1.10;;;0.17;;
38811;SDS011;24553;51.640;-0.752;2022-08-07T13:51:35;0.00;;;0.00;;
38811;SDS011;24553;51.640;-0.752;2022-08-07T13:54:02;0.65;;;0.00;;
38811;SDS011;24553;51.640;-0.752;2022-08-07T13:56:31;4.40;;;0.10;;
38811;SDS011;24553;51.640;-0.752;2022-08-07T13:58:59;2.13;;;0.00;;
38811;SDS011;24553;51.640;-0.752;2022-08-07T14:01:30;0.20;;;0.08;;
38811;SDS011;24553;51.640;-0.752;2022-08-07T14:04:00;0.13;;;0.10;;
38811;SDS011;24553;51.640;-0.752;2022-08-07T14:06:31;1.85;;;0.15;;
38811;SDS011;24553;51.640;-0.752;2022-08-07T14:08:59;0.65;;;0.00;;
38811;SDS011;24553;51.640;-0.752;2022-08-07T14:11:27;1.30;;;0.00;;
38811;SDS011;24553;51.640;-0.752;2022-08-07T14:13:55;0.95;;;0.00;;
38811;SDS011;24553;51.640;-0.752;2022-08-07T14:16:35;1.65;;;0.00;;
38811;SDS011;24553;51.640;-0.752;2022-08-07T14:19:04;0.28;;;0.10;;
38811;SDS011;24553;51.640;-0.752;2022-08-07T14:21:41;0.20;;;0.10;;
38811;SDS011;24553;51.640;-0.752;2022-08-07T14:24:12;0.43;;;0.05;;
38811;SDS011;24553;51.640;-0.752;2022-08-07T14:26:47;2.92;;;0.00;;
38811;SDS011;24553;51.640;-0.752;2022-08-07T14:29:15;0.00;;;0.00;;
38811;SDS011;24553;51.640;-0.752;2022-08-07T14:31:42;0.50;;;0.10;;
38811;SDS011;24553;51.640;-0.752;2022-08-07T14:34:10;0.85;;;0.00;;
38811;SDS011;24553;51.640;-0.752;2022-08-07T14:36:36;0.00;;;0.00;;
38811;SDS011;24553;51.640;-0.752;2022-08-07T14:39:02;0.63;;;0.00;;
38811;SDS011;24553;51.640;-0.752;2022-08-07T14:41:29;0.52;;;0.03;;
38811;SDS011;24553;51.640;-0.752;2022-08-07T14:43:57;0.22;;;0.00;;
38811;SDS011;24553;51.640;-0.752;2022-08-07T14:46:28;0.63;;;0.00;;
38811;SDS011;24553;51.640;-0.752;2022-08-07T14:48:56;0.90;;;0.10;;
38811;SDS011;24553;51.640;-0.752;2022-08-07T14:51:24;3.65;;;0.10;;
38811;SDS011;24553;51.640;-0.752;2022-08-07T14:53:52;1.23;;;0.08;;
38811;SDS011;24553;51.640;-0.752;2022-08-07T14:56:20;0.10;;;0.08;;
38811;SDS011;24553;51.640;-0.752;2022-08-07T14:58:48;0.32;;;0.00;;
38811;SDS011;24553;51.640;-0.752;2022-08-07T15:01:16;0.00;;;0.00;;
38811;SDS011;24553;51.640;-0.752;2022-08-07T15:03:43;2.63;;;0.10;;
38811;SDS011;24553;51.640;-0.752;2022-08-07T15:06:11;0.10;;;0.00;;
38811;SDS011;24553;51.640;-0.752;2022-08-07T15:08:39;3.13;;;0.00;;
38811;SDS011;24553;51.640;-0.752;2022-08-07T15:11:10;0.03;;;0.00;;
38811;SDS011;24553;51.640;-0.752;2022-08-07T15:13:44;0.30;;;0.08;;
38811;SDS011;24553;51.640;-0.752;2022-08-07T15:16:13;0.10;;;0.00;;
38811;SDS011;24553;51.640;-0.752;2022-08-07T15:18:44;2.65;;;0.10;;
38811;SDS011;24553;51.640;-0.752;2022-08-07T15:21:19;0.63;;;0.20;;
38811;SDS011;24553;51.640;-0.752;2022-08-07T15:23:54;1.77;;;0.00;;
38811;SDS011;24553;51.640;-0.752;2022-08-07T15:26:30;0.20;;;0.00;;
38811;SDS011;24553;51.640;-0.752;2022-08-07T15:28:59;4.53;;;0.10;;
38811;SDS011;24553;51.640;-0.752;2022-08-07T15:31:27;0.32;;;0.00;;
38811;SDS011;24553;51.640;-0.752;2022-08-07T15:33:59;0.15;;;0.00;;
38811;SDS011;24553;51.640;-0.752;2022-08-07T15:36:26;0.28;;;0.10;;
38811;SDS011;24553;51.640;-0.752;2022-08-07T15:38:52;3.53;;;0.10;;
38811;SDS011;24553;51.640;-0.752;2022-08-07T15:41:21;0.30;;;0.00;;
38811;SDS011;24553;51.640;-0.752;2022-08-07T15:43:58;0.25;;;0.00;;
38811;SDS011;24553;51.640;-0.752;2022-08-07T15:46:27;0.00;;;0.00;;
38811;SDS011;24553;51.640;-0.752;2022-08-07T15:48:55;1.27;;;0.10;;
38811;SDS011;24553;51.640;-0.752;2022-08-07T15:51:24;0.08;;;0.00;;
38811;SDS011;24553;51.640;-0.752;2022-08-07T15:53:53;0.32;;;0.00;;
38811;SDS011;24553;51.640;-0.752;2022-08-07T15:56:21;1.15;;;0.10;;
38811;SDS011;24553;51.640;-0.752;2022-08-07T15:58:57;0.45;;;0.10;;
38811;SDS011;24553;51.640;-0.752;2022-08-07T16:01:29;1.55;;;0.00;;
38811;SDS011;24553;51.640;-0.752;2022-08-07T16:03:59;0.73;;;0.08;;
38811;SDS011;24553;51.640;-0.752;2022-08-07T16:06:31;0.13;;;0.00;;
38811;SDS011;24553;51.640;-0.752;2022-08-07T16:09:01;0.10;;;0.10;;
38811;SDS011;24553;51.640;-0.752;2022-08-07T16:14:19;0.10;;;0.00;;
38811;SDS011;24553;51.640;-0.752;2022-08-07T16:30:55;0.10;;;0.00;;
38811;SDS011;24553;51.640;-0.752;2022-08-07T16:33:30;0.00;;;0.00;;
38811;SDS011;24553;51.640;-0.752;2022-08-07T16:44:42;0.25;;;0.00;;
38811;SDS011;24553;51.640;-0.752;2022-08-07T16:50:32;0.85;;;0.40;;
38811;SDS011;24553;51.640;-0.752;2022-08-07T17:09:16;0.10;;;0.00;;
38811;SDS011;24553;51.640;-0.752;2022-08-07T17:11:57;0.00;;;0.00;;
38811;SDS011;24553;51.640;-0.752;2022-08-07T17:14:32;1.75;;;0.00;;
38811;SDS011;24553;51.640;-0.752;2022-08-07T17:20:15;1.10;;;0.00;;
38811;SDS011;24553;51.640;-0.752;2022-08-07T17:25:31;0.10;;;0.10;;
38811;SDS011;24553;51.640;-0.752;2022-08-07T17:28:15;1.35;;;0.00;;
38811;SDS011;24553;51.640;-0.752;2022-08-07T17:30:59;1.05;;;0.10;;
38811;SDS011;24553;51.640;-0.752;2022-08-07T17:33:48;0.57;;;0.10;;
38811;SDS011;24553;51.640;-0.752;2022-08-07T17:36:17;0.17;;;0.00;;
38811;SDS011;24553;51.640;-0.752;2022-08-07T17:41:44;0.20;;;0.00;;
38811;SDS011;24553;51.640;-0.752;2022-08-07T17:44:21;0.25;;;0.25;;
38811;SDS011;24553;51.640;-0.752;2022-08-07T17:51:56;0.30;;;0.03;;
38811;SDS011;24553;51.640;-0.752;2022-08-07T17:54:49;1.45;;;0.20;;
38811;SDS011;24553;51.640;-0.752;2022-08-07T17:57:32;0.55;;;0.00;;
38811;SDS011;24553;51.640;-0.752;2022-08-07T18:00:15;9.25;;;0.20;;
38811;SDS011;24553;51.640;-0.752;2022-08-07T18:08:16;0.10;;;0.05;;
38811;SDS011;24553;51.640;-0.752;2022-08-07T18:10:52;0.75;;;0.00;;
38811;SDS011;24553;51.640;-0.752;2022-08-07T18:18:51;0.25;;;0.00;;
38811;SDS011;24553;51.640;-0.752;2022-08-07T18:21:29;0.47;;;0.45;;
38811;SDS011;24553;51.640;-0.752;2022-08-07T18:35:06;0.22;;;0.00;;
38811;SDS011;24553;51.640;-0.752;2022-08-07T18:40:52;0.40;;;0.00;;
38811;SDS011;24553;51.640;-0.752;2022-08-07T18:49:36;1.40;;;0.30;;
38811;SDS011;24553;51.640;-0.752;2022-08-07T18:57:22;0.15;;;0.08;;
38811;SDS011;24553;51.640;-0.752;2022-08-07T19:00:05;2.38;;;0.03;;
38811;SDS011;24553;51.640;-0.752;2022-08-07T19:02:51;0.95;;;0.00;;
38811;SDS011;24553;51.640;-0.752;2022-08-07T19:05:28;0.85;;;0.08;;
38811;SDS011;24553;51.640;-0.752;2022-08-07T19:08:05;1.45;;;0.00;;
38811;SDS011;24553;51.640;-0.752;2022-08-07T19:10:42;0.65;;;0.05;;
38811;SDS011;24553;51.640;-0.752;2022-08-07T19:13:24;2.00;;;0.03;;
38811;SDS011;24553;51.640;-0.752;2022-08-07T19:16:03;0.25;;;0.00;;
38811;SDS011;24553;51.640;-0.752;2022-08-07T19:21:47;0.65;;;0.00;;
38811;SDS011;24553;51.640;-0.752;2022-08-07T19:24:21;0.57;;;0.10;;
38811;SDS011;24553;51.640;-0.752;2022-08-07T19:26:51;0.35;;;0.00;;
38811;SDS011;24553;51.640;-0.752;2022-08-07T19:29:21;3.10;;;0.15;;
38811;SDS011;24553;51.640;-0.752;2022-08-07T19:31:52;0.65;;;0.10;;
38811;SDS011;24553;51.640;-0.752;2022-08-07T19:34:21;0.30;;;0.20;;
38811;SDS011;24553;51.640;-0.752;2022-08-07T19:36:50;0.75;;;0.08;;
38811;SDS011;24553;51.640;-0.752;2022-08-07T19:39:19;0.65;;;0.50;;
38811;SDS011;24553;51.640;-0.752;2022-08-07T19:41:48;1.55;;;0.30;;
38811;SDS011;24553;51.640;-0.752;2022-08-07T19:44:17;1.45;;;0.05;;